Time,TemperatureF,DewpointF,PressureIn,WindDirection,WindDirectionDegrees,WindSpeedMPH,WindSpeedGustMPH,Humidity,HourlyPrecipIn,Conditions,Clouds,dailyrainin,SoftwareType,DateUTC
2016-07-24 00:04:00,57.9,48.6,30.08,ENE,71,0.0,0.0,71,0.00,,,0.00,Wunderground v.1.15,2016-07-24 07:04:00,
2016-07-24 00:10:00,57.5,48.5,30.08,ENE,72,0.0,0.0,72,0.00,,,0.00,Wunderground v.1.15,2016-07-24 07:10:00,
2016-07-24 00:16:00,57.5,48.2,30.08,ENE,72,0.0,0.0,71,0.00,,,0.00,Wunderground v.1.15,2016-07-24 07:16:00,
2016-07-24 00:22:00,57.7,47.6,30.08,East,86,0.0,0.0,69,0.00,,,0.00,Wunderground v.1.15,2016-07-24 07:22:00,
2016-07-24 00:28:00,57.6,47.5,30.08,East,86,0.0,0.0,69,0.00,,,0.00,Wunderground v.1.15,2016-07-24 07:28:00,
2016-07-24 00:33:00,57.3,47.2,30.08,East,86,0.0,3.0,69,0.00,,,0.00,Wunderground v.1.15,2016-07-24 07:33:00,
2016-07-24 00:39:00,57.2,47.1,30.08,East,86,0.0,3.0,69,0.00,,,0.00,Wunderground v.1.15,2016-07-24 07:39:00,
2016-07-24 00:44:00,56.9,48.0,30.08,East,86,0.0,3.0,72,0.00,,,0.00,Wunderground v.1.15,2016-07-24 07:44:00,
2016-07-24 00:50:00,56.5,46.8,30.08,East,86,0.0,3.0,70,0.00,,,0.00,Wunderground v.1.15,2016-07-24 07:50:00,
2016-07-24 00:56:00,56.2,48.7,30.08,East,86,0.0,3.0,76,0.00,,,0.00,Wunderground v.1.15,2016-07-24 07:56:00,
2016-07-24 01:01:00,55.9,47.0,30.08,East,86,0.0,3.0,72,0.00,,,0.00,Wunderground v.1.15,2016-07-24 08:01:00,
2016-07-24 01:07:00,55.8,47.3,30.08,East,86,0.0,3.0,73,0.00,,,0.00,Wunderground v.1.15,2016-07-24 08:07:00,
2016-07-24 01:13:00,56.1,48.6,30.08,East,86,0.0,3.0,76,0.00,,,0.00,Wunderground v.1.15,2016-07-24 08:13:00,
2016-07-24 01:18:00,55.6,49.2,30.08,SSW,193,0.0,3.0,79,0.00,,,0.00,Wunderground v.1.15,2016-07-24 08:18:00,
2016-07-24 01:24:00,54.3,48.3,30.08,SSE,166,0.0,3.0,80,0.00,,,0.00,Wunderground v.1.15,2016-07-24 08:24:00,
2016-07-24 01:30:00,53.3,47.9,30.08,SSE,166,0.0,3.0,82,0.00,,,0.00,Wunderground v.1.15,2016-07-24 08:30:00,
2016-07-24 01:35:00,53.0,48.3,30.08,SSE,166,0.0,3.0,84,0.00,,,0.00,Wunderground v.1.15,2016-07-24 08:35:00,
2016-07-24 01:41:00,52.7,48.3,30.08,SSE,166,0.0,3.0,85,0.00,,,0.00,Wunderground v.1.15,2016-07-24 08:41:00,
2016-07-24 01:46:00,53.0,48.6,30.08,ESE,110,0.0,3.0,85,0.00,,,0.00,Wunderground v.1.15,2016-07-24 08:46:00,
2016-07-24 01:51:00,52.7,47.4,30.08,ESE,105,0.0,3.0,82,0.00,,,0.00,Wunderground v.1.15,2016-07-24 08:51:00,
2016-07-24 01:56:00,52.7,48.0,30.08,ESE,105,0.0,3.0,84,0.00,,,0.00,Wunderground v.1.15,2016-07-24 08:56:00,
2016-07-24 02:01:00,52.9,48.5,30.08,ESE,104,0.0,3.0,85,0.00,,,0.00,Wunderground v.1.15,2016-07-24 09:01:00,
2016-07-24 02:07:00,53.0,48.6,30.08,ESE,105,0.0,3.0,85,0.00,,,0.00,Wunderground v.1.15,2016-07-24 09:07:00,
2016-07-24 02:12:00,53.1,49.0,30.08,ESE,104,0.0,3.0,86,0.00,,,0.00,Wunderground v.1.15,2016-07-24 09:12:00,
2016-07-24 02:18:00,52.8,49.0,30.08,ESE,104,0.0,3.0,87,0.00,,,0.00,Wunderground v.1.15,2016-07-24 09:18:00,
2016-07-24 02:24:00,52.4,48.6,30.08,ESE,105,0.0,3.0,87,0.00,,,0.00,Wunderground v.1.15,2016-07-24 09:24:00,
2016-07-24 02:29:00,52.1,48.7,30.08,ESE,104,0.0,3.0,88,0.00,,,0.00,Wunderground v.1.15,2016-07-24 09:29:00,